Aérodrome :
LOGIN :

S'inscrire | Disclaimer

   EN    FR    IT 

 










Légende :    VFR   VFR Marginal   IFR   IFR Intensif   IFR Très Intensif
Visi : 
Plafond : 
>= 8 km
>= 3000ft
5 à 8 km
1000 à 3000 ft
1500m à 5 km
500 à 1000 ft
800 à 1500m
200 à 500 ft
< 800m
< 200 ft
Symboles :   Orages  Brouillard  Fortes neiges  Fortes précipitations  Vent > 20 kt
SIGMETs :   Divers  Orages  Givrage  Turbulence  Onde Orograph.  Cendres Volcan.







- Altitude de l'aérodrome : 461 ft
- Code IATA : WIE


ETOU - Wiesbaden Army

DERNIER METAR :
  • 201426Z AUTO 25007KT 9999 -RA BKN035 OVC070 16/09 A3014 RMK AO2 RAB26 SLP209 $

METARs EXPIRÉS :
  • 201406Z AUTO 00000KT 9999 SCT027 SCT035 BKN075 16/09 A3015 RMK AO2 SLP213 $
  • 201356Z AUTO 24004KT 9999 BKN028 BKN039 16/10 A3015 RMK AO2 PK WND 03063/1259 RAB09E21 SLP212 P0000 T01560099 $
  • 201321Z AUTO M 9999 BKN028 OVC041 16/11 A3016 RMK AO2 RAB09E21 SLP215 $
  • 201309Z 28006KT 9999 -RA BKN026 BKN042 16/09 A3016 RMK AO2A RAB09 SLP215 $
  • 201301Z COR AUTO 27004KT 9999 BKN026 BKN080 16/10 A3016 RMK AO2A SLP215 COR 1307
  • 201256Z AUTO 00000KT 9999 BKN026 BKN080 16/10 A3016 RMK AO2 SLP215 T01570102 $
  • 201244Z AUTO 00000KT 3200 HZ BKN024 BKN080 15/10 A3016 RMK AO2 VIS 0400V8000 SLP215 $
  • 201216Z AUTO 00000KT 9999 BKN024 15/10 A3017 RMK AO2 CIG 023 RWY07 SLP219 $
  • 201156Z AUTO 00000KT 9999 FEW022 SCT027 SCT065 15/10 A3017 RMK AO2 PK WND 03063/20 SLP219 70005 T01470101 10147 20092 58007 $

TAF TAF ETOU
Valide du 20 à 11h jusqu'au 21 à 17h UTC


201104Z 2011/2117 21006KT 9999 SCT010 BKN080 QNH3014INS
BECMG 2017/2018 14006KT 9999 BKN080 QNH3016INS
BECMG 2102/2103 VRB06KT 5000 BR BKN050 QNH3016INS
BECMG 2108/2109 13006KT 9999 NSW SCT050 QNH3012INS TX15/2111Z TN04/2106Z
Pas de NOTAMs connus pour ce terrain.



MET'MAP, la Météo Aéronautique d'un coup d'oeil ! - Copyright ORBIFLY Décembre 2007 - Disclaimer

ORBIFLY MET'MAP TEAM :

Programmation & Développement : Alexandra Zaïnal
Conception & Développement : Baudouin d'Aumeries
Co-Programmation & Développement : Marc-Olivier Méhu
Soutien technique & logistique : Manuel Goepfert

Contact : metmap@orbifly.com




SOURCES & CREDITS :

   NOAA